createdAt,value
2022-07-26T00:02:06.384Z,18.82
2022-07-26T00:04:52.900Z,18.85
2022-07-26T00:07:40.996Z,18.85
2022-07-26T00:10:28.008Z,18.83
2022-07-26T00:13:14.690Z,18.77
2022-07-26T00:16:01.207Z,18.75
2022-07-26T00:18:48.032Z,18.74
2022-07-26T00:21:34.702Z,18.71
2022-07-26T00:24:22.873Z,18.91
2022-07-26T00:27:09.837Z,19.25
2022-07-26T00:29:56.455Z,18.95
2022-07-26T00:32:43.481Z,18.63
2022-07-26T00:35:30.270Z,18.76
2022-07-26T00:38:18.079Z,18.76
2022-07-26T00:41:07.340Z,18.74
2022-07-26T00:43:58.834Z,18.81
2022-07-26T00:46:45.907Z,18.82
2022-07-26T00:49:33.120Z,18.66
2022-07-26T00:52:19.618Z,18.76
2022-07-26T00:55:07.742Z,18.75
2022-07-26T00:57:55.817Z,18.73
2022-07-26T01:00:42.472Z,18.69
2022-07-26T01:03:30.335Z,18.68
2022-07-26T01:06:27.354Z,18.70
2022-07-26T01:09:15.388Z,18.65
2022-07-26T01:12:01.878Z,18.67
2022-07-26T01:14:50.178Z,18.61
2022-07-26T01:17:38.258Z,18.61
2022-07-26T01:20:25.017Z,18.61
2022-07-26T01:23:13.497Z,18.62
2022-07-26T01:26:00.404Z,18.64
2022-07-26T01:28:49.478Z,18.61
2022-07-26T01:31:36.129Z,18.61
2022-07-26T01:34:22.884Z,18.59
2022-07-26T01:37:09.522Z,18.60
2022-07-26T01:39:57.693Z,18.63
2022-07-26T01:42:44.557Z,18.64
2022-07-26T01:45:31.872Z,18.61
2022-07-26T01:48:18.845Z,18.59
2022-07-26T01:51:05.441Z,18.48
2022-07-26T01:53:52.148Z,18.56
2022-07-26T01:56:40.275Z,18.58
2022-07-26T01:59:26.758Z,18.54
2022-07-26T02:02:13.880Z,18.53
2022-07-26T02:05:00.489Z,18.49
2022-07-26T02:07:47.444Z,18.45
2022-07-26T02:10:52.866Z,18.46
2022-07-26T02:13:42.468Z,18.43
2022-07-26T02:16:29.154Z,18.37
2022-07-26T02:19:15.775Z,18.39
2022-07-26T02:22:02.876Z,18.38
2022-07-26T02:24:49.483Z,18.35
2022-07-26T02:27:36.801Z,18.29
2022-07-26T02:30:24.927Z,18.22
2022-07-26T02:33:11.669Z,18.13
2022-07-26T02:35:58.789Z,18.08
2022-07-26T02:38:45.560Z,18.02
2022-07-26T02:41:32.537Z,17.97
2022-07-26T02:44:19.178Z,17.93
2022-07-26T02:47:07.438Z,17.87
2022-07-26T02:49:54.248Z,17.95
2022-07-26T02:52:41.036Z,17.80
2022-07-26T02:55:28.681Z,17.78
2022-07-26T02:58:15.292Z,17.75
2022-07-26T03:01:02.011Z,17.67
2022-07-26T03:03:51.029Z,17.61
2022-07-26T03:06:38.112Z,17.59
2022-07-26T03:09:25.202Z,17.52
2022-07-26T03:12:11.593Z,17.52
2022-07-26T03:14:58.468Z,17.50
2022-07-26T03:17:45.263Z,17.49
2022-07-26T03:20:33.568Z,17.50
2022-07-26T03:23:20.399Z,17.49
2022-07-26T03:26:07.499Z,17.47
2022-07-26T03:28:54.164Z,17.48
2022-07-26T03:31:40.970Z,17.56
2022-07-26T03:34:27.542Z,17.65
2022-07-26T03:37:15.760Z,17.65
2022-07-26T03:40:02.410Z,17.74
2022-07-26T03:42:49.701Z,17.75
2022-07-26T03:45:36.959Z,17.77
2022-07-26T03:48:23.670Z,17.81
2022-07-26T03:51:10.398Z,17.85
2022-07-26T03:53:58.618Z,17.88
2022-07-26T03:56:45.170Z,17.95
2022-07-26T03:59:31.948Z,18.00
2022-07-26T04:02:18.991Z,18.09
2022-07-26T04:05:06.734Z,18.17
2022-07-26T04:07:54.821Z,18.22
2022-07-26T04:10:51.331Z,18.23
2022-07-26T04:13:38.142Z,18.25
2022-07-26T04:16:25.214Z,18.29
2022-07-26T04:19:12.250Z,18.34
2022-07-26T04:22:00.710Z,18.37
2022-07-26T04:24:48.698Z,18.38
2022-07-26T04:27:41.662Z,18.34
2022-07-26T04:30:31.034Z,18.45
2022-07-26T04:33:18.440Z,18.47
2022-07-26T04:36:07.341Z,18.46
2022-07-26T04:38:54.009Z,18.41
2022-07-26T04:41:40.683Z,18.49
2022-07-26T04:44:28.952Z,18.38
2022-07-26T04:47:15.345Z,18.34
2022-07-26T04:50:03.065Z,18.36
2022-07-26T04:52:54.059Z,18.43
2022-07-26T04:55:46.032Z,18.47
2022-07-26T04:58:36.185Z,18.50
2022-07-26T05:01:28.834Z,18.50
2022-07-26T05:04:16.952Z,18.53
2022-07-26T05:07:04.500Z,18.62
2022-07-26T05:09:51.193Z,18.80
2022-07-26T05:12:38.228Z,18.91
2022-07-26T05:15:34.916Z,19.02
2022-07-26T05:18:23.464Z,19.17
2022-07-26T05:21:10.582Z,19.23
2022-07-26T05:23:57.115Z,19.31
2022-07-26T05:26:44.045Z,19.36
2022-07-26T05:29:31.041Z,19.42
2022-07-26T05:32:18.634Z,19.41
2022-07-26T05:35:08.120Z,19.38
2022-07-26T05:37:54.539Z,19.58
2022-07-26T05:40:44.821Z,19.51
2022-07-26T05:43:41.500Z,19.52
2022-07-26T05:46:28.831Z,19.45
2022-07-26T05:49:15.551Z,19.50
2022-07-26T05:52:03.607Z,19.53
2022-07-26T05:54:50.357Z,19.43
2022-07-26T05:57:37.266Z,19.49
2022-07-26T06:00:23.996Z,19.53
2022-07-26T06:03:23.256Z,19.39
2022-07-26T06:06:09.985Z,19.38
2022-07-26T06:08:58.174Z,19.48
2022-07-26T06:11:47.260Z,19.53
2022-07-26T06:14:34.536Z,19.70
2022-07-26T06:17:20.999Z,19.76
2022-07-26T06:20:08.729Z,19.76
2022-07-26T06:22:58.162Z,19.94
2022-07-26T06:25:46.248Z,20.08
2022-07-26T06:28:35.793Z,20.23
2022-07-26T06:31:23.320Z,20.25
2022-07-26T06:34:10.525Z,20.19
2022-07-26T06:36:57.515Z,20.12
2022-07-26T06:39:44.377Z,19.99
2022-07-26T06:42:33.208Z,19.71
2022-07-26T06:45:19.873Z,19.75
2022-07-26T06:48:07.004Z,19.61
2022-07-26T06:50:53.416Z,19.54
2022-07-26T06:53:40.211Z,19.76
2022-07-26T06:56:30.987Z,19.62
2022-07-26T06:59:23.080Z,19.57
2022-07-26T07:02:09.957Z,19.50
2022-07-26T07:04:56.441Z,19.40
2022-07-26T07:07:43.225Z,19.42
2022-07-26T07:10:34.170Z,19.38
2022-07-26T07:13:22.282Z,19.72
2022-07-26T07:16:10.524Z,19.84
2022-07-26T07:18:56.943Z,19.89
2022-07-26T07:21:46.686Z,19.81
2022-07-26T07:24:33.743Z,19.82
2022-07-26T07:27:20.985Z,19.78
2022-07-26T07:30:10.973Z,19.69
2022-07-26T07:32:59.223Z,19.73
2022-07-26T07:35:45.946Z,19.88
2022-07-26T07:38:32.621Z,20.04
2022-07-26T07:41:23.800Z,20.07
2022-07-26T07:44:11.066Z,19.97
2022-07-26T07:46:58.021Z,20.06
2022-07-26T07:49:46.051Z,20.14
2022-07-26T07:52:32.811Z,20.21
2022-07-26T07:55:40.712Z,20.24
2022-07-26T07:58:28.030Z,20.35
2022-07-26T08:01:14.665Z,20.49
2022-07-26T08:04:01.512Z,20.52
2022-07-26T08:06:51.108Z,20.54
2022-07-26T08:09:43.098Z,20.49
2022-07-26T08:12:30.033Z,20.47
2022-07-26T08:15:16.665Z,20.36
2022-07-26T08:18:06.516Z,20.30
2022-07-26T08:20:55.544Z,20.30
2022-07-26T08:23:43.404Z,20.32
2022-07-26T08:26:29.936Z,20.36
2022-07-26T08:29:17.003Z,20.58
2022-07-26T08:32:03.736Z,20.64
2022-07-26T08:34:50.532Z,21.00
2022-07-26T08:37:37.395Z,21.19
2022-07-26T08:40:26.986Z,21.43
2022-07-26T08:43:14.723Z,21.55
2022-07-26T08:46:04.520Z,21.68
2022-07-26T08:48:51.601Z,21.56
2022-07-26T08:51:39.939Z,21.69
2022-07-26T08:54:27.289Z,21.79
2022-07-26T08:57:15.390Z,21.94
2022-07-26T09:00:19.323Z,22.14
2022-07-26T09:03:06.039Z,22.29
2022-07-26T09:05:54.719Z,22.16
2022-07-26T09:08:41.623Z,21.94
2022-07-26T09:11:33.480Z,21.69
2022-07-26T09:14:21.499Z,21.35
2022-07-26T09:17:08.332Z,20.93
2022-07-26T09:20:07.885Z,20.70
2022-07-26T09:23:01.586Z,20.80
2022-07-26T09:25:48.668Z,21.11
2022-07-26T09:28:35.393Z,21.85
2022-07-26T09:31:24.336Z,22.28
2022-07-26T09:34:11.277Z,22.35
2022-07-26T09:36:58.231Z,22.05
2022-07-26T09:39:57.154Z,21.95
2022-07-26T09:42:56.239Z,21.86
2022-07-26T09:45:43.576Z,21.78
2022-07-26T09:48:52.170Z,21.97
2022-07-26T09:51:40.790Z,22.62
2022-07-26T09:54:33.527Z,23.07
2022-07-26T09:57:22.100Z,23.24
2022-07-26T10:00:10.229Z,23.41
2022-07-26T10:02:56.914Z,23.51
2022-07-26T10:05:44.978Z,23.78
2022-07-26T10:08:31.799Z,23.74
2022-07-26T10:11:20.104Z,23.75
2022-07-26T10:14:39.079Z,23.33
2022-07-26T10:17:46.531Z,22.93
2022-07-26T10:20:46.745Z,22.67
2022-07-26T10:23:44.026Z,22.49
2022-07-26T10:26:43.338Z,22.44
2022-07-26T10:29:31.399Z,22.28
2022-07-26T10:32:20.487Z,22.07
2022-07-26T10:35:31.331Z,21.95
2022-07-26T10:38:26.182Z,21.86
2022-07-26T10:41:13.061Z,21.97
2022-07-26T10:44:21.203Z,22.37
2022-07-26T10:47:18.607Z,22.74
2022-07-26T10:50:05.792Z,23.07
2022-07-26T10:52:59.928Z,23.30
2022-07-26T10:55:49.984Z,23.35
2022-07-26T10:58:44.401Z,23.43
2022-07-26T11:01:34.764Z,23.46
2022-07-26T11:04:22.615Z,23.26
2022-07-26T11:07:09.148Z,23.24
2022-07-26T11:09:56.872Z,22.95
2022-07-26T11:12:45.169Z,22.86
2022-07-26T11:15:31.987Z,23.03
2022-07-26T11:18:22.494Z,23.36
2022-07-26T11:21:11.074Z,23.73
2022-07-26T11:24:03.348Z,24.00
2022-07-26T11:26:50.555Z,24.07
2022-07-26T11:29:40.740Z,24.04
2022-07-26T11:32:28.366Z,24.03
2022-07-26T11:35:14.969Z,24.22
2022-07-26T11:38:11.793Z,24.32
2022-07-26T11:40:59.241Z,24.29
2022-07-26T11:43:46.195Z,24.34
2022-07-26T11:46:36.832Z,24.14
2022-07-26T11:49:41.439Z,23.77
2022-07-26T11:52:32.587Z,23.34
2022-07-26T11:55:27.391Z,22.89
2022-07-26T11:58:14.189Z,22.56
2022-07-26T12:01:00.921Z,21.94
2022-07-26T12:03:52.272Z,21.28
2022-07-26T12:06:40.172Z,20.86
2022-07-26T12:09:32.315Z,20.49
2022-07-26T12:12:24.271Z,20.27
2022-07-26T12:15:12.627Z,20.19
2022-07-26T12:17:59.809Z,20.04
2022-07-26T12:21:04.630Z,20.24
2022-07-26T12:23:53.208Z,20.24
2022-07-26T12:26:40.945Z,20.47
2022-07-26T12:29:33.194Z,20.84
2022-07-26T12:32:21.248Z,21.05
2022-07-26T12:35:09.406Z,21.37
2022-07-26T12:37:57.364Z,21.63
2022-07-26T12:40:44.091Z,21.82
2022-07-26T12:43:40.223Z,22.02
2022-07-26T12:46:27.105Z,22.31
2022-07-26T12:49:14.236Z,22.52
2022-07-26T12:52:00.900Z,22.65
2022-07-26T12:54:50.815Z,22.48
2022-07-26T12:57:37.724Z,22.39
2022-07-26T13:00:28.763Z,22.17
2022-07-26T13:03:16.546Z,22.10
2022-07-26T13:06:03.805Z,22.00
2022-07-26T13:08:51.214Z,21.86
2022-07-26T13:11:39.300Z,21.74
2022-07-26T13:14:25.902Z,21.69
2022-07-26T13:17:12.918Z,21.48
2022-07-26T13:19:59.395Z,21.29
2022-07-26T13:22:46.073Z,21.18
2022-07-26T13:25:38.289Z,21.00
2022-07-26T13:28:28.201Z,20.83
2022-07-26T13:31:15.371Z,20.77
2022-07-26T13:34:01.757Z,20.76
2022-07-26T13:36:49.048Z,20.87
2022-07-26T13:39:36.100Z,20.99
2022-07-26T13:42:22.881Z,21.02
2022-07-26T13:45:12.496Z,21.08
2022-07-26T13:48:00.113Z,21.04
2022-07-26T13:50:47.081Z,21.25
2022-07-26T13:53:33.562Z,21.35
2022-07-26T13:56:20.487Z,21.41
2022-07-26T13:59:07.217Z,21.36
2022-07-26T14:01:56.974Z,21.45
2022-07-26T14:04:43.673Z,21.51
2022-07-26T14:07:30.429Z,21.54
2022-07-26T14:10:17.582Z,21.41
2022-07-26T14:13:06.541Z,21.53
2022-07-26T14:15:53.777Z,21.61
2022-07-26T14:18:42.098Z,21.58
2022-07-26T14:21:47.318Z,21.57
2022-07-26T14:24:37.049Z,21.76
2022-07-26T14:27:24.056Z,21.98
2022-07-26T14:30:11.297Z,22.08
2022-07-26T14:32:58.263Z,22.11
2022-07-26T14:35:46.886Z,22.17
2022-07-26T14:38:33.776Z,22.15
2022-07-26T14:41:20.570Z,22.39
2022-07-26T14:44:07.680Z,22.34
2022-07-26T14:46:54.593Z,22.48
2022-07-26T14:49:41.452Z,22.36
2022-07-26T14:52:29.762Z,22.27
2022-07-26T14:55:24.558Z,22.14
2022-07-26T14:58:12.277Z,21.99
2022-07-26T15:00:58.779Z,21.93
2022-07-26T15:03:46.535Z,21.93
2022-07-26T15:06:33.808Z,21.95
2022-07-26T15:09:24.491Z,21.77
2022-07-26T15:12:13.511Z,21.70
2022-07-26T15:15:02.028Z,21.63
2022-07-26T15:17:50.727Z,21.43
2022-07-26T15:20:41.600Z,21.58
2022-07-26T15:23:32.866Z,21.98
2022-07-26T15:26:21.645Z,22.44
2022-07-26T15:29:08.410Z,22.81
2022-07-26T15:31:55.289Z,22.86
2022-07-26T15:34:42.098Z,22.76
2022-07-26T15:37:30.012Z,22.48
2022-07-26T15:40:16.536Z,22.41
2022-07-26T15:43:04.678Z,22.26
2022-07-26T15:45:55.502Z,22.09
2022-07-26T15:48:42.985Z,21.93
2022-07-26T15:51:30.397Z,21.87
2022-07-26T15:54:17.370Z,22.05
2022-07-26T15:57:04.467Z,22.12
2022-07-26T15:59:52.282Z,22.28
2022-07-26T16:02:40.286Z,22.27
2022-07-26T16:05:27.019Z,22.17
2022-07-26T16:08:13.899Z,22.12
2022-07-26T16:11:00.596Z,22.16
2022-07-26T16:13:47.422Z,22.11
2022-07-26T16:16:35.725Z,22.10
2022-07-26T16:19:22.361Z,22.25
2022-07-26T16:22:09.413Z,22.50
2022-07-26T16:24:56.475Z,22.65
2022-07-26T16:27:44.151Z,22.88
2022-07-26T16:30:30.615Z,22.96
2022-07-26T16:33:18.812Z,22.75
2022-07-26T16:36:06.612Z,22.78
2022-07-26T16:38:53.285Z,23.00
2022-07-26T16:41:40.010Z,23.13
2022-07-26T16:44:27.052Z,23.24
2022-07-26T16:47:13.976Z,22.95
2022-07-26T16:50:01.874Z,22.68
2022-07-26T16:52:48.582Z,22.48
2022-07-26T16:55:35.218Z,22.17
2022-07-26T16:58:22.863Z,22.13
2022-07-26T17:01:09.848Z,22.07
2022-07-26T17:03:56.232Z,21.95
2022-07-26T17:07:01.646Z,21.89
2022-07-26T17:09:51.274Z,21.78
2022-07-26T17:12:38.672Z,21.74
2022-07-26T17:15:25.423Z,21.64
2022-07-26T17:18:12.080Z,21.49
2022-07-26T17:20:59.585Z,21.34
2022-07-26T17:23:48.824Z,21.27
2022-07-26T17:26:37.510Z,21.11
2022-07-26T17:29:24.102Z,21.07
2022-07-26T17:32:11.642Z,21.27
2022-07-26T17:34:58.338Z,21.29
2022-07-26T17:37:45.029Z,21.23
2022-07-26T17:40:35.701Z,21.20
2022-07-26T17:43:25.292Z,21.14
2022-07-26T17:46:23.523Z,21.00
2022-07-26T17:49:10.208Z,20.83
2022-07-26T17:52:00.877Z,20.80
2022-07-26T17:54:54.044Z,20.84
2022-07-26T17:57:44.581Z,20.84
2022-07-26T18:00:31.630Z,20.70
2022-07-26T18:03:18.302Z,20.64
2022-07-26T18:06:06.652Z,20.52
2022-07-26T18:08:53.419Z,20.29
2022-07-26T18:11:41.464Z,20.14
2022-07-26T18:14:29.252Z,19.94
2022-07-26T18:17:16.059Z,19.82
2022-07-26T18:20:03.036Z,19.70
2022-07-26T18:22:56.198Z,19.65
2022-07-26T18:25:46.769Z,19.50
2022-07-26T18:28:33.605Z,19.45
2022-07-26T18:31:22.411Z,19.40
2022-07-26T18:34:09.459Z,19.27
2022-07-26T18:36:56.107Z,19.12
2022-07-26T18:39:42.923Z,19.10
2022-07-26T18:42:29.920Z,19.02
2022-07-26T18:45:16.813Z,18.86
2022-07-26T18:48:04.761Z,18.83
2022-07-26T18:50:52.587Z,18.69
2022-07-26T18:53:39.787Z,18.64
2022-07-26T18:56:28.049Z,18.57
2022-07-26T18:59:15.094Z,18.38
2022-07-26T19:02:04.013Z,18.33
2022-07-26T19:04:52.468Z,18.24
2022-07-26T19:07:39.785Z,18.07
2022-07-26T19:10:32.678Z,17.98
2022-07-26T19:13:19.154Z,17.87
2022-07-26T19:16:06.601Z,17.72
2022-07-26T19:18:57.351Z,17.63
2022-07-26T19:21:47.343Z,17.51
2022-07-26T19:24:34.153Z,17.44
2022-07-26T19:27:20.789Z,17.34
2022-07-26T19:30:10.996Z,17.19
2022-07-26T19:32:58.417Z,17.06
2022-07-26T19:35:45.912Z,16.98
2022-07-26T19:38:38.100Z,16.90
2022-07-26T19:41:30.176Z,16.83
2022-07-26T19:44:21.821Z,16.72
2022-07-26T19:47:14.690Z,16.63
2022-07-26T19:50:02.572Z,16.59
2022-07-26T19:52:51.387Z,16.46
2022-07-26T19:55:41.800Z,16.39
2022-07-26T19:58:29.347Z,16.29
2022-07-26T20:01:15.581Z,16.24
2022-07-26T20:04:03.092Z,16.25
2022-07-26T20:06:49.864Z,16.10
2022-07-26T20:09:36.439Z,16.00
2022-07-26T20:12:24.420Z,16.03
2022-07-26T20:15:12.495Z,16.01
2022-07-26T20:17:59.609Z,15.94
2022-07-26T20:20:46.883Z,15.87
2022-07-26T20:23:34.147Z,15.85
2022-07-26T20:26:21.818Z,15.85
2022-07-26T20:29:11.456Z,15.79
2022-07-26T20:31:58.222Z,15.72
2022-07-26T20:34:45.081Z,15.67
2022-07-26T20:37:32.160Z,15.76
2022-07-26T20:40:19.049Z,15.78
2022-07-26T20:43:06.667Z,15.77
2022-07-26T20:45:55.075Z,15.68
2022-07-26T20:48:43.522Z,15.54
2022-07-26T20:51:32.557Z,15.48
2022-07-26T20:54:19.276Z,15.45
2022-07-26T20:57:05.887Z,15.46
2022-07-26T20:59:54.868Z,15.49
2022-07-26T21:02:45.901Z,15.29
2022-07-26T21:05:32.898Z,15.25
2022-07-26T21:08:19.662Z,15.26
2022-07-26T21:11:06.620Z,15.24
2022-07-26T21:13:53.398Z,15.16
2022-07-26T21:16:40.229Z,15.04
2022-07-26T21:19:28.437Z,15.04
2022-07-26T21:22:15.422Z,15.07
2022-07-26T21:25:01.962Z,15.13
2022-07-26T21:27:49.019Z,15.05
2022-07-26T21:30:35.763Z,14.93
2022-07-26T21:33:22.510Z,14.94
2022-07-26T21:36:10.853Z,14.90
2022-07-26T21:38:57.460Z,14.99
2022-07-26T21:41:44.276Z,15.06
2022-07-26T21:44:31.081Z,14.81
2022-07-26T21:47:17.769Z,14.81
2022-07-26T21:50:05.198Z,14.67
2022-07-26T21:52:53.077Z,14.77
2022-07-26T21:55:39.998Z,14.58
2022-07-26T21:58:28.066Z,14.52
2022-07-26T22:01:15.839Z,14.42
2022-07-26T22:04:02.766Z,14.46
2022-07-26T22:06:49.618Z,14.38
2022-07-26T22:09:37.706Z,14.35
2022-07-26T22:12:24.570Z,14.26
2022-07-26T22:15:12.209Z,14.24
2022-07-26T22:18:00.343Z,14.25
2022-07-26T22:20:47.604Z,14.25
2022-07-26T22:23:34.450Z,14.24
2022-07-26T22:26:26.244Z,14.27
2022-07-26T22:29:13.033Z,14.37
2022-07-26T22:31:59.971Z,14.36
2022-07-26T22:34:46.769Z,14.39
2022-07-26T22:37:33.825Z,14.45
2022-07-26T22:40:21.221Z,14.59
2022-07-26T22:43:10.711Z,14.64
2022-07-26T22:45:57.213Z,14.62
2022-07-26T22:48:47.934Z,14.66
2022-07-26T22:51:34.634Z,14.68
2022-07-26T22:54:22.864Z,14.84
2022-07-26T22:57:09.681Z,14.83
2022-07-26T22:59:58.092Z,14.76
2022-07-26T23:02:45.231Z,14.72
2022-07-26T23:05:46.203Z,14.72
2022-07-26T23:08:46.874Z,14.92
2022-07-26T23:11:34.100Z,14.93
2022-07-26T23:14:22.298Z,15.01
2022-07-26T23:17:12.475Z,15.01
2022-07-26T23:20:03.062Z,14.97
2022-07-26T23:22:52.960Z,15.01
2022-07-26T23:25:41.345Z,15.12
2022-07-26T23:28:35.501Z,15.24
2022-07-26T23:31:26.067Z,15.13
2022-07-26T23:34:14.057Z,15.14
2022-07-26T23:37:01.038Z,15.14
2022-07-26T23:39:47.966Z,15.03
2022-07-26T23:42:34.712Z,15.07
2022-07-26T23:45:21.679Z,15.06
2022-07-26T23:48:08.516Z,15.03
2022-07-26T23:50:56.498Z,14.95
2022-07-26T23:53:43.559Z,14.80
2022-07-26T23:56:30.073Z,14.85
2022-07-26T23:59:16.772Z,14.87
